Time;durP1;ratioP1;P1;durP2;ratioP2;P2;SDS_P1;SDS_P2;PMS_P1;PMS_P2;Temp;Humidity;BMP_temperature;BMP_pressure;BME280_temperature;BME280_humidity;BME280_pressure;Samples;Min_cycle;Max_cycle;Signal;HPM_P1;HPM_P2
2022/12/26 17:58:37;;;;;;;2.60;2.13;;;9.30;99.90;;;;;;5092260;27;20544;-61
2022/12/26 18:01:04;;;;;;;3.90;2.40;;;9.30;99.90;;;;;;5091786;28;20448;-61
2022/12/26 18:03:31;;;;;;;2.43;2.33;;;9.40;99.90;;;;;;5091417;28;20526;-60
2022/12/26 18:05:58;;;;;;;1.90;1.33;;;9.70;99.90;;;;;;5091464;28;20476;-59
2022/12/26 18:08:30;;;;;;;2.07;1.97;;;9.90;99.90;;;;;;5090803;28;20445;-59
2022/12/26 18:10:57;;;;;;;1.87;1.77;;;10.10;99.90;;;;;;5091305;28;20463;-60
2022/12/26 18:13:24;;;;;;;1.57;1.47;;;10.30;99.90;;;;;;5091474;28;20816;-60
2022/12/26 18:15:53;;;;;;;1.47;1.47;;;10.50;99.90;;;;;;5091375;28;20449;-60
2022/12/26 18:18:26;;;;;;;1.40;1.40;;;10.60;99.90;;;;;;5091463;28;20472;-60
2022/12/26 18:20:53;;;;;;;1.23;1.23;;;10.70;99.90;;;;;;5090913;28;20901;-60
2022/12/26 18:23:21;;;;;;;1.60;1.50;;;10.80;99.90;;;;;;5090594;28;20887;-60
2022/12/26 18:25:48;;;;;;;1.47;1.37;;;10.70;99.90;;;;;;5090927;28;20475;-60
2022/12/26 18:28:17;;;;;;;1.63;1.53;;;10.80;99.90;;;;;;5091016;28;20496;-59
2022/12/26 18:30:44;;;;;;;1.27;1.27;;;10.70;99.90;;;;;;5090868;28;20438;-59
2022/12/26 18:33:12;;;;;;;1.60;1.50;;;10.70;99.90;;;;;;5090784;28;20477;-61
2022/12/26 18:35:40;;;;;;;1.63;1.60;;;10.70;99.90;;;;;;5090454;28;20552;-60
2022/12/26 18:38:07;;;;;;;1.07;1.07;;;10.60;99.90;;;;;;5090396;28;20473;-60
2022/12/26 18:40:36;;;;;;;1.50;1.30;;;10.60;99.90;;;;;;5090836;28;20483;-59
2022/12/26 18:43:04;;;;;;;1.10;1.00;;;10.70;99.90;;;;;;5090468;28;20469;-60
2022/12/26 18:45:31;;;;;;;0.90;0.90;;;10.60;99.90;;;;;;5090631;28;20496;-63
2022/12/26 18:47:59;;;;;;;0.60;0.60;;;10.70;99.90;;;;;;5090470;28;20452;-63
2022/12/26 18:50:27;;;;;;;0.73;0.73;;;10.70;99.90;;;;;;5089967;28;20948;-63
2022/12/26 18:52:54;;;;;;;1.33;1.10;;;10.70;99.90;;;;;;5090086;28;20984;-64
2022/12/26 18:55:21;;;;;;;1.17;0.80;;;10.70;99.90;;;;;;5090792;28;20785;-64
2022/12/26 18:57:49;;;;;;;1.30;1.20;;;10.60;99.90;;;;;;5090404;28;20477;-64
2022/12/26 19:00:17;;;;;;;1.23;1.23;;;10.60;99.90;;;;;;5090746;28;20457;-64
2022/12/26 19:02:46;;;;;;;1.33;1.30;;;10.60;99.90;;;;;;5090563;28;20897;-65
2022/12/26 19:05:17;;;;;;;1.30;1.30;;;10.60;99.90;;;;;;5090393;28;20461;-64
2022/12/26 19:07:47;;;;;;;1.50;1.50;;;10.60;99.90;;;;;;5090061;28;20511;-64
2022/12/26 19:10:14;;;;;;;2.23;1.43;;;10.60;99.90;;;;;;5077479;28;20441;-63
2022/12/26 19:12:41;;;;;;;7.07;1.17;;;10.70;99.90;;;;;;5077181;28;20438;-63
2022/12/26 19:15:09;;;;;;;1.80;1.60;;;10.70;99.90;;;;;;5076784;28;20438;-64
2022/12/26 19:17:37;;;;;;;1.20;1.20;;;10.60;99.90;;;;;;5076518;28;20531;-63
2022/12/26 19:20:05;;;;;;;2.43;1.50;;;10.60;99.90;;;;;;5076567;28;20457;-64
2022/12/26 19:22:32;;;;;;;1.60;1.37;;;10.60;99.90;;;;;;5077060;28;20478;-63
2022/12/26 19:25:00;;;;;;;2.70;1.77;;;10.60;99.90;;;;;;5076540;28;20454;-63
2022/12/26 19:27:26;;;;;;;1.70;1.60;;;10.60;99.90;;;;;;5077231;28;20503;-63
2022/12/26 19:29:53;;;;;;;1.50;1.50;;;10.50;99.90;;;;;;5077060;28;20940;-64
2022/12/26 19:32:19;;;;;;;1.30;1.20;;;10.40;99.90;;;;;;5076490;28;20961;-64
2022/12/26 19:34:46;;;;;;;3.20;2.10;;;10.30;99.90;;;;;;5076648;28;20562;-64
2022/12/26 19:37:13;;;;;;;1.10;1.10;;;10.20;99.90;;;;;;5076607;28;20478;-64
2022/12/26 19:39:39;;;;;;;1.10;1.10;;;10.10;99.90;;;;;;5076291;28;20458;-64
2022/12/26 19:42:07;;;;;;;1.40;1.30;;;10.10;99.90;;;;;;5076409;28;20511;-64
2022/12/26 19:44:34;;;;;;;1.57;1.47;;;10.10;99.90;;;;;;5076640;28;20500;-64
2022/12/26 19:47:01;;;;;;;2.20;2.00;;;10.10;99.90;;;;;;5076317;28;20450;-63
2022/12/26 19:49:27;;;;;;;1.30;1.20;;;10.10;99.90;;;;;;5076157;28;20500;-62
2022/12/26 19:51:54;;;;;;;1.30;1.20;;;10.10;99.90;;;;;;5076171;28;20438;-62
2022/12/26 19:54:21;;;;;;;1.33;0.90;;;10.10;99.90;;;;;;5075828;28;20524;-62
2022/12/26 19:56:48;;;;;;;0.90;0.90;;;10.00;99.90;;;;;;5076067;28;20510;-62
2022/12/26 19:59:16;;;;;;;1.33;0.87;;;10.00;99.90;;;;;;5075873;28;20439;-62
2022/12/26 20:01:42;;;;;;;1.03;0.80;;;9.90;99.90;;;;;;5075461;28;20942;-63
2022/12/26 20:04:09;;;;;;;1.13;1.10;;;9.80;99.90;;;;;;5075559;28;20495;-63
2022/12/26 20:06:37;;;;;;;1.40;1.40;;;9.80;99.90;;;;;;5075446;28;20568;-63
2022/12/26 20:09:08;;;;;;;1.10;1.00;;;9.90;99.90;;;;;;5075558;28;20446;-63
2022/12/26 20:11:37;;;;;;;1.60;1.50;;;9.80;99.90;;;;;;5075737;28;20445;-63
2022/12/26 20:14:06;;;;;;;1.20;1.20;;;9.80;99.90;;;;;;5075498;28;20474;-63
2022/12/26 20:16:35;;;;;;;1.50;1.40;;;9.90;99.90;;;;;;5075498;28;20454;-62
2022/12/26 20:19:01;;;;;;;1.20;1.20;;;9.90;99.90;;;;;;5075253;28;20531;-63
2022/12/26 20:21:28;;;;;;;1.10;1.10;;;9.90;99.90;;;;;;5074761;28;20525;-62
2022/12/26 20:23:56;;;;;;;1.37;1.33;;;9.90;99.90;;;;;;5075464;28;20470;-62
2022/12/26 20:26:24;;;;;;;1.37;1.20;;;9.90;99.90;;;;;;5075568;28;20520;-63
2022/12/26 20:28:52;;;;;;;1.30;1.27;;;9.90;99.90;;;;;;5075727;28;20802;-62
2022/12/26 20:31:20;;;;;;;1.67;1.40;;;9.80;99.90;;;;;;5075448;28;20454;-63
2022/12/26 20:33:50;;;;;;;1.30;1.20;;;9.80;99.90;;;;;;5075182;28;20473;-63
2022/12/26 20:36:19;;;;;;;1.00;1.00;;;9.80;99.90;;;;;;5075226;28;20487;-64
2022/12/26 20:38:47;;;;;;;4.23;2.50;;;9.80;99.90;;;;;;5075126;28;20474;-63
2022/12/26 20:41:14;;;;;;;1.60;1.00;;;9.70;99.90;;;;;;5075180;28;20484;-63
2022/12/26 20:43:41;;;;;;;1.70;1.60;;;9.80;99.90;;;;;;5075068;28;20517;-59
2022/12/26 20:46:10;;;;;;;1.00;1.00;;;9.80;99.90;;;;;;5076466;28;20454;-60
2022/12/26 20:48:37;;;;;;;2.90;1.17;;;9.80;99.90;;;;;;5080272;28;20431;-59
2022/12/26 20:51:07;;;;;;;1.00;1.00;;;9.80;99.90;;;;;;5082894;28;20465;-60
2022/12/26 20:53:35;;;;;;;1.13;1.13;;;9.90;99.90;;;;;;5079671;28;20470;-60
2022/12/26 20:56:01;;;;;;;1.17;1.17;;;9.80;99.90;;;;;;5078450;28;20476;-63
2022/12/26 20:58:33;;;;;;;1.43;1.20;;;9.80;99.90;;;;;;5075539;28;20535;-63
2022/12/26 21:01:01;;;;;;;2.67;1.33;;;9.80;99.90;;;;;;5075244;28;20445;-63
2022/12/26 21:03:28;;;;;;;2.70;1.20;;;9.80;99.90;;;;;;5081845;28;20817;-63
2022/12/26 21:06:04;;;;;;;2.07;1.50;;;9.80;99.90;;;;;;5089542;28;20456;-64
2022/12/26 21:08:32;;;;;;;1.27;1.10;;;9.80;99.90;;;;;;5087604;28;20434;-63
2022/12/26 21:11:05;;;;;;;1.53;1.43;;;9.80;99.90;;;;;;5087138;28;20469;-60
2022/12/26 21:13:32;;;;;;;1.30;1.30;;;9.70;99.90;;;;;;5082680;28;20470;-59
2022/12/26 21:16:06;;;;;;;2.00;1.47;;;9.70;99.90;;;;;;5074503;28;20446;-59
2022/12/26 21:18:33;;;;;;;2.17;1.80;;;9.70;99.90;;;;;;5074930;28;20466;-60
2022/12/26 21:21:05;;;;;;;1.60;1.03;;;9.70;99.90;;;;;;5074567;28;20458;-60
2022/12/26 21:23:33;;;;;;;1.57;1.30;;;9.70;99.90;;;;;;5074348;28;21030;-63
2022/12/26 21:26:00;;;;;;;2.30;2.20;;;9.70;99.90;;;;;;5074337;28;20453;-63
2022/12/26 21:28:27;;;;;;;1.17;1.07;;;9.60;99.90;;;;;;5075516;28;20495;-63
2022/12/26 21:30:53;;;;;;;1.47;1.40;;;9.50;99.90;;;;;;5075220;28;20453;-63
2022/12/26 21:33:20;;;;;;;1.40;1.17;;;9.50;99.90;;;;;;5074913;28;20482;-63
2022/12/26 21:35:49;;;;;;;1.27;1.27;;;9.40;99.90;;;;;;5074176;28;20476;-63
2022/12/26 21:38:16;;;;;;;1.50;1.47;;;9.40;99.90;;;;;;5073599;28;20524;-64
2022/12/26 21:40:44;;;;;;;1.80;1.57;;;9.40;99.90;;;;;;5074132;28;20504;-63
2022/12/26 21:43:11;;;;;;;1.20;1.20;;;9.40;99.90;;;;;;5073978;28;20474;-62
2022/12/26 21:45:38;;;;;;;1.67;1.57;;;9.40;99.90;;;;;;5074061;28;20454;-63
2022/12/26 21:48:06;;;;;;;2.37;1.63;;;9.30;99.90;;;;;;5074124;28;20533;-63
2022/12/26 21:50:33;;;;;;;1.83;1.50;;;9.30;99.90;;;;;;5074309;28;20450;-63
2022/12/26 21:53:00;;;;;;;1.70;1.53;;;9.30;99.90;;;;;;5074419;28;20477;-60
2022/12/26 21:55:27;;;;;;;2.20;1.37;;;9.30;99.90;;;;;;5075259;28;20456;-64
2022/12/26 21:57:55;;;;;;;2.27;1.80;;;9.30;99.90;;;;;;5073693;28;20976;-63
2022/12/26 22:00:22;;;;;;;9.27;4.00;;;9.30;99.90;;;;;;5073506;28;20937;-64
2022/12/26 22:05:36;;;;;;;4.30;2.50;;;9.50;99.90;;;;;;5073734;28;20456;-59
2022/12/26 22:08:07;;;;;;;2.50;2.30;;;9.90;99.90;;;;;;5073657;28;20446;-59
2022/12/26 22:13:22;;;;;;;2.20;2.00;;;10.40;99.90;;;;;;5074975;28;20814;-60
2022/12/26 22:16:03;;;;;;;1.67;1.50;;;10.60;99.90;;;;;;5080875;28;20524;-60
2022/12/26 22:18:33;;;;;;;4.30;2.10;;;10.70;99.90;;;;;;5082882;28;20933;-62
2022/12/26 22:21:11;;;;;;;3.23;1.50;;;10.80;99.90;;;;;;5083447;28;20442;-62
2022/12/26 22:23:40;;;;;;;2.10;1.40;;;10.70;99.90;;;;;;5084352;28;20474;-62
2022/12/26 22:26:09;;;;;;;1.70;1.40;;;10.60;99.90;;;;;;5084230;28;20461;-59
2022/12/26 22:28:40;;;;;;;1.40;1.40;;;10.40;99.90;;;;;;5081709;28;20438;-62
2022/12/26 22:31:07;;;;;;;5.87;1.67;;;10.30;99.90;;;;;;5082790;28;20529;-59
2022/12/26 22:33:34;;;;;;;2.60;1.60;;;10.20;99.90;;;;;;5083970;28;20527;-64
2022/12/26 22:36:06;;;;;;;1.63;1.53;;;10.10;99.90;;;;;;5082456;28;20482;-63
2022/12/26 22:38:34;;;;;;;1.63;1.57;;;10.00;99.90;;;;;;5081853;28;20574;-59
2022/12/26 22:41:01;;;;;;;1.47;1.40;;;9.80;99.90;;;;;;5081636;28;20450;-63
2022/12/26 22:43:29;;;;;;;2.20;1.60;;;9.70;99.90;;;;;;5083237;28;20473;-63
2022/12/26 22:45:58;;;;;;;6.60;2.07;;;9.60;99.90;;;;;;5086292;28;20454;-60
2022/12/26 22:48:25;;;;;;;2.37;1.70;;;9.50;99.90;;;;;;5085435;28;20498;-59
2022/12/26 22:50:54;;;;;;;1.53;1.50;;;9.40;99.90;;;;;;5085769;28;20541;-59
2022/12/26 22:53:23;;;;;;;2.50;1.70;;;9.40;99.90;;;;;;5084870;28;20497;-60
2022/12/26 22:55:52;;;;;;;1.70;1.60;;;9.30;99.90;;;;;;5085324;28;20465;-59
2022/12/26 22:58:22;;;;;;;2.03;1.57;;;9.30;99.90;;;;;;5083338;28;20560;-59
2022/12/26 23:00:49;;;;;;;1.93;1.80;;;9.30;99.90;;;;;;5084921;28;20454;-59
2022/12/26 23:03:18;;;;;;;2.33;2.13;;;9.30;99.90;;;;;;5084752;28;20568;-62
2022/12/26 23:05:47;;;;;;;3.80;1.83;;;9.30;99.90;;;;;;5084809;28;20480;-63
2022/12/26 23:08:17;;;;;;;1.73;1.63;;;9.20;99.90;;;;;;5085874;28;20435;-63
2022/12/26 23:10:47;;;;;;;2.57;2.37;;;9.30;99.90;;;;;;5085476;28;20450;-63
2022/12/26 23:13:15;;;;;;;8.17;4.93;;;9.20;99.90;;;;;;5084732;28;20466;-64
2022/12/26 23:15:55;;;;;;;1.83;1.73;;;9.20;99.90;;;;;;5084707;28;20937;-63
2022/12/26 23:21:44;;;;;;;5.40;1.83;;;9.10;99.90;;;;;;5086575;28;20514;-63
2022/12/26 23:24:15;;;;;;;2.30;1.50;;;9.10;99.90;;;;;;5086069;28;20531;-63
2022/12/26 23:26:45;;;;;;;2.53;2.33;;;9.00;99.90;;;;;;5085025;28;20445;-64
2022/12/26 23:31:57;;;;;;;1.60;1.50;;;8.80;99.90;;;;;;5076824;28;20464;-63
2022/12/26 23:34:26;;;;;;;1.47;1.40;;;8.70;99.90;;;;;;5076793;28;20477;-62
2022/12/26 23:36:53;;;;;;;4.50;1.90;;;8.70;99.90;;;;;;5076951;28;20507;-62
2022/12/26 23:39:20;;;;;;;2.03;1.63;;;8.60;99.90;;;;;;5077006;28;20485;-63
2022/12/26 23:41:46;;;;;;;1.77;1.63;;;8.50;99.90;;;;;;5075899;28;20902;-64
2022/12/26 23:44:13;;;;;;;1.70;1.50;;;8.40;99.90;;;;;;5076122;28;20478;-63
2022/12/26 23:46:41;;;;;;;1.30;1.30;;;8.30;99.90;;;;;;5076154;28;20454;-63
2022/12/26 23:49:08;;;;;;;5.20;1.70;;;8.30;99.90;;;;;;5076327;28;20461;-63
2022/12/26 23:51:36;;;;;;;4.37;1.60;;;8.20;99.90;;;;;;5082178;28;20457;-63
2022/12/26 23:54:03;;;;;;;1.50;1.40;;;8.20;99.90;;;;;;5090928;28;20492;-64
2022/12/26 23:56:29;;;;;;;1.50;1.13;;;8.20;99.90;;;;;;5090482;28;20492;-63
2022/12/26 23:58:56;;;;;;;2.37;1.33;;;8.00;99.90;;;;;;5076068;28;20458;-63
